Nucla Hopkins Field Airport, CO

8:11 AM MST on February 27, 2017 (GMT -0700)
MNUCC2 | | Change Station
Active Advisory: Winter Weather Advisory

Elev 5858 ft 38.23 °N, 108.56 °W | Updated 21 minutes ago

Overcast
Overcast
35.0 °F
Feels Like 30 °F
N
6.0
Wind Variable Wind from SSE
Gusts 11.0 mph

Today
High -- | Low -- °F
--% Chance of Precip.
Yesterday
High -- | Low -- °F
Precip. -- in
Pressure 29.81 in
Visibility 10.0 miles
Clouds Mostly Cloudy 3800 ft
Mostly Cloudy 4500 ft
Overcast 5000 ft
Windchill 30 °F
Dew Point 23.0 °F
Humidity 60%
Rainfall in
Snow Depth Not available.
6:48 AM 6:05 PM
New Moon, 1% visible
METAR KAIB 271455Z AUTO 16004KT 10SM BKN038 BKN045 OVC050 02/M04 A2981 RMK AO2
Pressure 29.81 in
Visibility 10.0 miles
Clouds Mostly Cloudy 3800 ft
Mostly Cloudy 4500 ft
Overcast 5000 ft
Windchill 30 °F
Dew Point 23.0 °F
Humidity 60%
Rainfall in
Snow Depth Not available.
6:48 AM 6:05 PM
New Moon, 1% visible
METAR KAIB 271455Z AUTO 16004KT 10SM BKN038 BKN045 OVC050 02/M04 A2981 RMK AO2

Get Your Daily Forecast Email!

Thanks for signing up!

Be on the lookout for a verification email in your inbox.

You'll start receiving the daily forecast at 8 AM.

×

10-Day Weather Forecast

Almanac

Astronomy

Feb. 27, 2017 Rise Set
Actual Time
Civil Twilight
Nautical Twilight
Astronomical Twilight
Moon
Length of Visible Light
Length of Day
Tomorrow will be .
, % of the Moon is Illuminated

Today's Extremes

State Highs State Lows

Community

WunderPhotos

Upload Photos

1,962,540 photos uploaded!

WunderBlog® & News

Nearby

Air Quality

  Air Quality AQ Index Pollutant
Not available.

Snow Depth

Station Depth Elevation

Earthquake Activity

City Distance Mag. Time & Date
Minimum magnitude displayed is 2.5.

Coastal Water Temperatures

Place Temperature

Stations

Nearby Weather Stations

Station Location Temp. Windchill Dew Point Humidity Wind Precip. Elev Updated Type
                   

Watches & Warnings

Winter Weather Advisory
Issued: 6:43 AM MST Feb. 27, 2017 – National Weather Service

... Winter Weather Advisory remains in effect from 6 PM this
evening to 5 PM MST Tuesday above 6000 feet...

* locations include... Cortez, Dove Creek, and Mancos.

* Timing... scattered showers today will become widespread late
this afternoon and this evening, continuing overnight. Snow,
heavy at times, will continue into Tuesday night.

* Snow accumulation... 2 to 6 inches above 6000 feet. Higher
amounts are possible at higher locations in Mesa Verde National
Park.

* Winds... west 10 to 20 mph with gusts up to 30 mph.

* Visibility... less than a mile at times in moderate snow and
blowing snow.

* Impacts... moderate snowfall and strong winds will create
hazardous driving conditions.

Precautionary/preparedness actions...

A Winter Weather Advisory means that periods of snow and/or
blowing snow will cause travel difficulties. Be prepared for
slippery roads and limited visibilities, and use caution while
driving.